aviador You're here:

LEAL Decoded Metar

ALICANTE in SPAIN
Report Time2017-12-11 05:30:00
UTC Time2017-12-11 05:36:57
Flight Rules vfr VFR
Wind200° at 13 kt
W.Decomp.*RWY 28: 2.5 kt HW 12.8 kt LCW
W.Rank200° ranks 28
Current wind is above 200° avg. (5.4)
Visibility9999 m
Phenomena:N/A
Clouds:N/A
Expected CloudBase > 2,000 ft AGL from Temp-Dew spread
CeilingNone
Temp16°C (ISA +1)
Dew Point11°C (72% RH)
AAT11.6°C
QNH0995 hPa
Density Alt1,033 ft
Elevation102 ft
Report Wrong Elevation
Raw Report
METAR LEAL 110530Z 20013KT 150V240 CAVOK 16/11 Q0995 NOSIG=

Extra information for LEAL:More info

Metar Taf Metar & Taf Last 4 Metars F.Rules Stats Wind Profile Meteogram Temp Stats Airport Information Weather charts Add Link Nearby VenuesMetar ALERT Operation Metar Decoded Social comments